Time;durP1;ratioP1;P1;durP2;ratioP2;P2;SDS_P1;SDS_P2;PMS_P1;PMS_P2;Temp;Humidity;BMP_temperature;BMP_pressure;BME280_temperature;BME280_humidity;BME280_pressure;Samples;Min_cycle;Max_cycle;Signal;HPM_P1;HPM_P2
2022/09/03 00:00:15;;;;;;;10.80;5.45;;;;;;;15.81;45.26;101214.13;1748831;79;21094;-47
2022/09/03 00:02:49;;;;;;;9.23;5.50;;;;;;;15.81;45.20;101220.76;1752745;80;21073;-47
2022/09/03 00:05:41;;;;;;;11.05;5.97;;;;;;;15.78;45.31;101215.22;1728622;80;21120;-49
2022/09/03 00:08:37;;;;;;;9.78;5.60;;;;;;;15.77;45.19;101210.91;1751829;79;21084;-47
2022/09/03 00:11:24;;;;;;;8.55;5.17;;;;;;;15.75;45.11;101215.03;1752950;79;21247;-47
2022/09/03 00:14:08;;;;;;;9.20;4.62;;;;;;;15.77;44.78;101219.70;1750109;79;21621;-47
2022/09/03 00:16:54;;;;;;;10.10;5.95;;;;;;;15.78;44.96;101226.70;1753114;79;22341;-47
2022/09/03 00:19:30;;;;;;;;;;;;;;;15.78;44.96;101220.06;1732500;79;21095;-46
2022/09/03 00:22:10;;;;;;;10.60;5.87;;;;;;;15.79;44.87;101223.05;1759238;79;20230;-47
2022/09/03 00:24:39;;;;;;;9.95;5.05;;;;;;;15.79;44.50;101217.74;1752262;79;21396;-47
2022/09/03 00:27:12;;;;;;;8.83;5.00;;;;;;;15.82;44.54;101223.75;1752300;79;21690;-47
2022/09/03 00:29:46;;;;;;;9.18;5.20;;;;;;;15.81;45.07;101226.90;1755277;79;21093;-47
2022/09/03 00:32:17;;;;;;;9.95;4.78;;;;;;;15.81;45.42;101230.05;1757975;80;21016;-47
2022/09/03 00:34:50;;;;;;;8.88;5.22;;;;;;;15.79;45.83;101229.69;1754609;79;21059;-47
2022/09/03 00:37:17;;;;;;;11.35;5.00;;;;;;;15.79;46.11;101231.02;1722731;81;21251;-47
2022/09/03 00:39:44;;;;;;;10.18;6.00;;;;;;;15.80;46.12;101227.86;1730213;81;21105;-46
2022/09/03 00:42:22;;;;;;;8.70;5.10;;;;;;;15.79;45.63;101226.20;1758135;80;21404;-47
2022/09/03 00:45:11;;;;;;;10.53;4.87;;;;;;;15.78;45.57;101216.55;1734008;80;21039;-47
2022/09/03 00:48:04;;;;;;;9.40;5.08;;;;;;;15.79;45.83;101217.74;1745701;79;21003;-47
2022/09/03 00:51:12;;;;;;;9.60;5.60;;;;;;;15.82;45.95;101228.59;1755995;80;21091;-47
2022/09/03 00:54:03;;;;;;;9.90;5.50;;;;;;;15.82;45.62;101227.73;1760305;81;21050;-47
2022/09/03 00:56:52;;;;;;;12.88;5.30;;;;;;;15.83;45.47;101224.11;1755558;80;21025;-47
2022/09/03 00:59:42;;;;;;;8.70;5.53;;;;;;;15.83;45.56;101230.75;1703384;81;21550;-48
2022/09/03 01:02:27;;;;;;;10.58;5.70;;;;;;;15.79;45.75;101228.36;1759826;80;21056;-47
2022/09/03 01:04:59;;;;;;;8.55;4.92;;;;;;;15.77;46.36;101233.47;1734681;79;21102;-46
2022/09/03 01:08:02;;;;;;;7.37;4.17;;;;;;;15.73;46.22;101233.34;1735088;80;21004;-46
2022/09/03 01:10:55;;;;;;;8.10;4.85;;;;;;;15.73;45.25;101235.99;1756687;79;21050;-47
2022/09/03 01:13:35;;;;;;;9.10;4.90;;;;;;;15.69;45.00;101231.45;1759376;80;21073;-46
2022/09/03 01:16:28;;;;;;;8.55;5.50;;;;;;;15.65;45.08;101234.03;1758845;79;21060;-47
2022/09/03 01:19:24;;;;;;;8.18;5.05;;;;;;;15.64;45.44;101235.49;1736297;80;21132;-47
2022/09/03 01:21:57;;;;;;;8.35;4.70;;;;;;;15.61;45.27;101233.93;1734208;80;21379;-46
2022/09/03 01:24:52;;;;;;;10.38;5.03;;;;;;;15.60;45.64;101230.45;1737480;80;21349;-46
2022/09/03 01:27:39;;;;;;;11.28;4.70;;;;;;;15.61;46.03;101240.06;1738803;80;21576;-46
2022/09/03 01:30:09;;;;;;;10.82;5.00;;;;;;;15.61;45.70;101239.23;1741627;80;21132;-48
2022/09/03 01:33:12;;;;;;;9.40;5.22;;;;;;;15.60;45.58;101237.08;1757958;79;21110;-47
2022/09/03 01:36:08;;;;;;;10.10;5.60;;;;;;;15.60;45.54;101235.76;1750597;80;21072;-47
2022/09/03 01:38:55;;;;;;;9.73;4.90;;;;;;;15.62;45.60;101235.62;1737086;80;21077;-46
2022/09/03 01:42:17;;;;;;;10.53;5.17;;;;;;;15.60;46.12;101235.76;1751814;79;21069;-47
2022/09/03 01:44:56;;;;;;;9.60;4.72;;;;;;;15.58;47.54;101235.06;1753532;79;21084;-47
2022/09/03 01:48:04;;;;;;;16.23;6.08;;;;;;;15.60;48.37;101238.88;1752594;79;21174;-47
2022/09/03 01:51:05;;;;;;;13.30;5.72;;;;;;;15.60;48.40;101234.89;1748682;79;21671;-47
2022/09/03 01:54:15;;;;;;;16.70;5.62;;;;;;;15.59;48.95;101243.84;1745280;79;21065;-46
2022/09/03 01:57:15;;;;;;;8.03;4.45;;;;;;;15.59;48.48;101233.23;1755726;79;21051;-47
2022/09/03 02:00:09;;;;;;;9.18;5.17;;;;;;;15.58;47.51;101233.73;1754196;79;21077;-46
2022/09/03 02:02:42;;;;;;;9.70;5.08;;;;;;;15.54;46.79;101236.28;1756338;79;21098;-46
2022/09/03 02:05:13;;;;;;;8.10;4.90;;;;;;;15.49;46.89;101232.37;1755284;79;21101;-46
2022/09/03 02:07:46;;;;;;;7.33;4.28;;;;;;;15.46;47.53;101235.28;1760239;79;21113;-47
2022/09/03 02:10:19;;;;;;;8.33;5.50;;;;;;;15.41;47.44;101233.85;1761325;79;21108;-46
2022/09/03 02:12:53;;;;;;;11.70;5.10;;;;;;;15.37;47.89;101232.45;1754830;79;21125;-46
2022/09/03 02:15:22;;;;;;;10.25;5.12;;;;;;;15.34;48.52;101235.37;1757710;79;21201;-47
2022/09/03 02:17:49;;;;;;;9.68;4.70;;;;;;;15.32;48.45;101231.19;1759940;79;21058;-46
2022/09/03 02:20:19;;;;;;;7.42;4.80;;;;;;;15.29;48.17;101233.60;1754078;79;21134;-46
2022/09/03 02:22:47;;;;;;;13.95;5.35;;;;;;;15.27;47.99;101230.75;1759024;79;21078;-46
2022/09/03 02:25:15;;;;;;;9.15;5.20;;;;;;;15.25;48.22;101234.86;1754659;79;21097;-48
2022/09/03 02:27:43;;;;;;;10.90;4.80;;;;;;;15.24;48.51;101237.14;1763207;79;21114;-46
2022/09/03 02:30:11;;;;;;;9.23;4.62;;;;;;;15.21;48.66;101232.09;1761063;79;21576;-46
2022/09/03 02:32:37;;;;;;;9.08;4.67;;;;;;;15.20;49.14;101231.77;1761673;79;21669;-46
2022/09/03 02:35:05;;;;;;;10.40;5.35;;;;;;;15.19;49.31;101232.23;1740343;79;21478;-46
2022/09/03 02:37:32;;;;;;;8.75;5.12;;;;;;;15.19;49.57;101235.38;1755991;79;21171;-46
2022/09/03 02:39:59;;;;;;;9.40;5.30;;;;;;;15.18;49.18;101240.31;1756951;79;21171;-46
2022/09/03 02:42:26;;;;;;;8.53;4.67;;;;;;;15.16;49.33;101236.49;1758429;79;21055;-49
2022/09/03 02:45:03;;;;;;;9.63;4.92;;;;;;;15.12;49.48;101238.20;1758926;79;21100;-46
2022/09/03 02:47:31;;;;;;;7.80;4.80;;;;;;;15.09;49.46;101231.84;1744376;79;21129;-46
2022/09/03 02:49:57;;;;;;;9.43;4.95;;;;;;;15.07;49.17;101237.77;1741136;80;21127;-46
2022/09/03 02:52:24;;;;;;;8.28;5.17;;;;;;;15.03;48.81;101243.31;1731214;80;21115;-47
2022/09/03 02:54:50;;;;;;;9.13;4.90;;;;;;;15.02;49.14;101238.97;1726884;81;21212;-46
2022/09/03 02:57:17;;;;;;;8.85;5.22;;;;;;;14.99;49.62;101237.91;1757869;80;21369;-46
2022/09/03 02:59:44;;;;;;;10.13;5.12;;;;;;;14.97;49.38;101242.50;1752759;80;21046;-47
2022/09/03 03:02:12;;;;;;;9.08;5.65;;;;;;;14.98;48.99;101244.20;1747402;80;22282;-46
2022/09/03 03:04:39;;;;;;;10.48;5.65;;;;;;;14.96;49.01;101248.80;1751871;80;21250;-47
2022/09/03 03:07:06;;;;;;;10.85;5.20;;;;;;;14.96;48.97;101246.14;1725184;81;21795;-47
2022/09/03 03:09:32;;;;;;;12.50;5.62;;;;;;;14.96;49.09;101246.14;1756476;79;21163;-47
2022/09/03 03:11:59;;;;;;;8.98;5.10;;;;;;;14.97;49.62;101245.65;1756967;79;21122;-47
2022/09/03 03:14:26;;;;;;;8.33;5.45;;;;;;;14.97;49.97;101244.33;1755049;79;20987;-47
2022/09/03 03:16:52;;;;;;;7.67;4.58;;;;;;;14.97;49.54;101246.48;1760690;79;21125;-46
2022/09/03 03:19:19;;;;;;;8.95;4.67;;;;;;;14.97;49.08;101250.45;1751864;79;21122;-46
2022/09/03 03:21:46;;;;;;;8.58;4.85;;;;;;;14.97;49.88;101249.12;1753808;79;21129;-47
2022/09/03 03:24:12;;;;;;;8.55;5.17;;;;;;;14.98;49.76;101251.31;1756691;80;21538;-46
2022/09/03 03:26:40;;;;;;;11.35;5.00;;;;;;;14.98;49.02;101256.12;1755822;79;21568;-46
2022/09/03 03:29:06;;;;;;;7.75;4.95;;;;;;;14.99;48.70;101252.98;1756887;79;21716;-46
2022/09/03 03:31:33;;;;;;;9.53;5.33;;;;;;;14.98;48.68;101256.62;1750457;79;21564;-46
2022/09/03 03:34:01;;;;;;;10.35;5.03;;;;;;;14.97;48.80;101251.78;1762527;80;21891;-46
2022/09/03 03:36:31;;;;;;;8.68;4.78;;;;;;;14.96;48.76;101247.94;1752537;79;22474;-46
2022/09/03 03:38:58;;;;;;;8.28;5.00;;;;;;;14.95;48.69;101265.66;1754679;79;21101;-47
2022/09/03 03:41:31;;;;;;;9.53;4.67;;;;;;;14.95;48.41;101276.25;1756112;79;22490;-46
2022/09/03 03:44:04;;;;;;;8.10;4.92;;;;;;;14.95;48.75;101283.38;1759506;79;21555;-46
2022/09/03 03:46:33;;;;;;;10.63;5.50;;;;;;;14.91;48.97;101292.07;1759784;79;21029;-46
2022/09/03 03:49:00;;;;;;;8.25;5.17;;;;;;;14.87;48.80;101295.92;1759380;79;21077;-47
2022/09/03 03:51:26;;;;;;;9.90;5.53;;;;;;;14.79;49.02;101293.08;1758418;79;21061;-47
2022/09/03 03:53:57;;;;;;;9.63;5.15;;;;;;;14.74;49.35;101289.48;1749806;79;21226;-47
2022/09/03 03:56:25;;;;;;;9.40;5.20;;;;;;;14.71;49.61;101295.52;1748034;79;21137;-46
2022/09/03 03:58:53;;;;;;;10.50;6.25;;;;;;;14.68;49.73;101291.33;1758460;79;21021;-46
2022/09/03 04:01:25;;;;;;;9.38;5.47;;;;;;;14.67;50.08;101301.56;1754974;79;21069;-46
2022/09/03 04:03:54;;;;;;;8.90;5.80;;;;;;;14.63;50.20;101298.33;1758601;79;21081;-47
2022/09/03 04:06:20;;;;;;;11.15;6.53;;;;;;;14.59;50.50;101308.83;1754438;79;21899;-46
2022/09/03 04:08:48;;;;;;;9.58;6.08;;;;;;;14.54;50.54;101300.39;1754969;79;21066;-46
2022/09/03 04:11:17;;;;;;;11.10;7.15;;;;;;;14.54;50.49;101300.39;1756491;79;21046;-47
2022/09/03 04:13:45;;;;;;;11.93;7.20;;;;;;;14.58;50.45;101312.90;1758621;79;21058;-46
2022/09/03 04:16:18;;;;;;;11.08;6.40;;;;;;;14.58;50.52;101313.73;1757934;79;21026;-46
2022/09/03 04:18:48;;;;;;;9.68;6.47;;;;;;;14.61;50.58;101307.38;1764289;79;21093;-47
2022/09/03 04:21:17;;;;;;;10.95;6.00;;;;;;;14.67;50.80;101301.56;1764235;79;21401;-47
2022/09/03 04:23:45;;;;;;;10.50;6.08;;;;;;;14.72;51.05;101306.48;1766379;79;21442;-47
2022/09/03 04:26:15;;;;;;;10.43;6.35;;;;;;;14.78;51.06;101303.34;1764696;79;21157;-47
2022/09/03 04:28:42;;;;;;;9.95;6.60;;;;;;;14.80;50.77;101302.22;1766575;79;21057;-47
2022/09/03 04:35:10;;;;;;;11.50;5.27;;;;;;;15.15;49.64;101297.59;1843948;75;21714;-47
2022/09/03 04:37:37;;;;;;;10.40;5.42;;;;;;;15.16;49.41;101296.14;1850108;75;22242;-47
2022/09/03 04:40:05;;;;;;;10.58;5.12;;;;;;;15.20;49.95;101295.39;1846445;76;21465;-47
2022/09/03 04:42:31;;;;;;;10.32;5.62;;;;;;;15.21;49.85;101295.26;1841870;75;22284;-47
2022/09/03 04:44:58;;;;;;;10.20;5.15;;;;;;;15.24;49.50;101294.97;1849060;75;21464;-48
2022/09/03 04:47:25;;;;;;;10.15;5.53;;;;;;;15.28;49.95;101298.69;1844350;76;21059;-47
2022/09/03 04:49:52;;;;;;;9.20;5.28;;;;;;;15.30;49.83;101297.61;1842095;75;21409;-47
2022/09/03 04:52:20;;;;;;;13.45;5.47;;;;;;;15.33;49.83;101295.16;1848869;75;21117;-47
2022/09/03 04:54:46;;;;;;;7.95;5.20;;;;;;;15.38;50.03;101302.23;1846115;76;21012;-47
2022/09/03 04:57:13;;;;;;;9.40;5.75;;;;;;;15.40;50.12;101303.80;1842728;75;21049;-47
2022/09/03 04:59:41;;;;;;;9.73;5.53;;;;;;;15.43;49.95;101304.00;1848367;77;21081;-47
2022/09/03 05:02:09;;;;;;;10.75;5.58;;;;;;;15.48;50.29;101304.94;1839493;77;21315;-48
2022/09/03 05:04:36;;;;;;;8.93;4.97;;;;;;;15.54;50.20;101301.77;1843775;76;21080;-47
2022/09/03 05:07:02;;;;;;;12.28;5.33;;;;;;;15.59;49.79;101301.70;1848509;75;22209;-47
2022/09/03 05:09:31;;;;;;;9.45;4.72;;;;;;;15.68;49.71;101299.23;1849142;77;21496;-47
2022/09/03 05:11:57;;;;;;;8.03;4.58;;;;;;;15.75;49.99;101301.70;1849493;75;21565;-47
2022/09/03 05:14:24;;;;;;;7.47;4.50;;;;;;;15.81;49.91;101304.35;1845054;76;22553;-48
2022/09/03 05:16:50;;;;;;;11.73;4.53;;;;;;;15.86;49.51;101296.33;1843825;75;21060;-47
2022/09/03 05:19:18;;;;;;;8.80;4.58;;;;;;;15.95;49.31;101293.34;1848684;76;21068;-47
2022/09/03 05:21:45;;;;;;;9.73;4.87;;;;;;;16.00;49.39;101293.77;1819030;77;21047;-47
2022/09/03 05:24:13;;;;;;;11.20;5.30;;;;;;;16.08;48.74;101291.78;1776831;79;21110;-47
2022/09/03 05:26:40;;;;;;;7.97;4.97;;;;;;;16.12;48.45;101294.03;1812031;78;21241;-46
2022/09/03 05:29:08;;;;;;;8.25;4.28;;;;;;;16.17;48.33;101286.95;1781187;78;21117;-47
2022/09/03 05:31:37;;;;;;;8.05;4.50;;;;;;;16.22;48.15;101287.38;1807345;78;21065;-47
2022/09/03 05:34:05;;;;;;;8.45;4.75;;;;;;;16.27;48.28;101297.60;1772695;78;21105;-47
2022/09/03 05:36:34;;;;;;;7.87;4.70;;;;;;;16.29;48.18;101296.50;1813354;78;21069;-47
2022/09/03 05:39:01;;;;;;;8.05;4.97;;;;;;;16.31;48.28;101293.71;1780394;78;21255;-47
2022/09/03 05:41:27;;;;;;;10.30;4.80;;;;;;;16.34;48.86;101287.63;1797569;78;21079;-47
2022/09/03 05:43:55;;;;;;;7.97;4.85;;;;;;;16.39;48.97;101285.89;1789302;78;21048;-50
2022/09/03 05:46:36;;;;;;;8.40;4.65;;;;;;;16.44;49.36;101292.09;1787406;78;21480;-47
2022/09/03 05:49:00;;;;;;;10.35;4.55;;;;;;;16.45;49.74;101293.28;1798565;78;21085;-47
2022/09/03 05:51:27;;;;;;;10.32;4.75;;;;;;;16.49;49.54;101300.02;1813811;77;22751;-47
2022/09/03 05:53:54;;;;;;;8.35;5.03;;;;;;;16.57;49.58;101298.47;1799644;77;20996;-47
2022/09/03 05:56:23;;;;;;;8.58;5.10;;;;;;;16.61;49.22;101294.54;1806958;77;21292;-49
2022/09/03 05:58:52;;;;;;;8.23;4.80;;;;;;;16.55;49.07;101294.63;1811510;77;21093;-47
2022/09/03 06:01:28;;;;;;;8.50;4.47;;;;;;;16.53;49.50;101297.41;1810453;78;21061;-47
2022/09/03 06:04:03;;;;;;;9.60;4.53;;;;;;;16.54;49.26;101298.25;1778904;78;21874;-47
2022/09/03 06:06:34;;;;;;;9.75;4.33;;;;;;;16.52;49.09;101290.45;1803806;78;21528;-48
2022/09/03 06:09:03;;;;;;;12.53;4.95;;;;;;;16.51;48.84;101291.91;1784727;78;21077;-47
2022/09/03 06:11:34;;;;;;;7.42;4.58;;;;;;;16.47;48.64;101287.84;1814122;78;21577;-47
2022/09/03 06:14:06;;;;;;;8.80;4.65;;;;;;;16.49;48.74;101291.19;1773994;78;21132;-47
2022/09/03 06:16:37;;;;;;;8.45;4.40;;;;;;;16.52;48.52;101287.79;1810986;77;21206;-48
2022/09/03 06:19:08;;;;;;;6.62;4.33;;;;;;;16.57;48.66;101289.17;1809386;77;21521;-48
2022/09/03 06:21:36;;;;;;;9.80;5.22;;;;;;;16.61;48.77;101287.90;1809652;78;21007;-47
2022/09/03 06:24:03;;;;;;;7.60;4.15;;;;;;;16.66;48.61;101283.00;1771907;78;21070;-48
2022/09/03 06:26:30;;;;;;;8.40;5.28;;;;;;;16.69;48.31;101278.27;1801765;78;21105;-47
2022/09/03 06:28:56;;;;;;;9.73;4.05;;;;;;;16.74;48.13;101284.47;1780569;78;21163;-47
2022/09/03 06:31:23;;;;;;;9.50;4.95;;;;;;;16.77;48.03;101284.19;1797577;77;22254;-47
2022/09/03 06:33:51;;;;;;;9.63;4.50;;;;;;;16.77;48.21;101282.03;1811690;77;21141;-47
2022/09/03 06:36:18;;;;;;;7.83;4.95;;;;;;;16.80;48.20;101286.57;1787920;78;21583;-47
2022/09/03 06:38:46;;;;;;;10.48;5.25;;;;;;;16.80;47.51;101279.92;1791585;78;21057;-48
2022/09/03 06:41:23;;;;;;;9.55;4.87;;;;;;;16.81;47.64;101286.94;1812687;78;21246;-47
2022/09/03 06:43:45;;;;;;;10.18;4.60;;;;;;;16.82;47.37;101296.56;1802237;77;21076;-47
2022/09/03 06:46:14;;;;;;;7.67;4.53;;;;;;;16.83;48.35;101286.80;1801274;78;21584;-47
2022/09/03 06:48:41;;;;;;;8.40;4.85;;;;;;;16.87;49.10;101286.38;1806130;77;21000;-49
2022/09/03 06:51:14;;;;;;;8.25;4.28;;;;;;;16.91;48.60;101285.59;1809148;77;21591;-47
2022/09/03 06:53:45;;;;;;;7.60;4.85;;;;;;;16.92;48.14;101292.61;1815284;77;21064;-47
2022/09/03 06:56:15;;;;;;;7.40;4.53;;;;;;;16.97;47.68;101295.67;1807283;78;21046;-47
2022/09/03 06:58:45;;;;;;;8.93;4.53;;;;;;;17.03;47.49;101300.90;1816391;77;21384;-47
2022/09/03 07:01:22;;;;;;;9.05;4.90;;;;;;;17.09;47.52;101296.35;1820605;77;21419;-47
2022/09/03 07:03:56;;;;;;;7.95;4.58;;;;;;;17.17;47.32;101296.48;1817493;77;21065;-47
2022/09/03 07:06:24;;;;;;;10.10;5.10;;;;;;;17.23;47.12;101292.39;1818424;77;21134;-48
2022/09/03 07:08:51;;;;;;;8.28;4.40;;;;;;;17.27;47.07;101285.81;1809254;77;21539;-47
2022/09/03 07:11:24;;;;;;;9.23;4.87;;;;;;;17.33;46.74;101289.71;1819749;77;21117;-48
2022/09/03 07:13:51;;;;;;;8.43;4.40;;;;;;;17.36;46.75;101292.09;1807849;78;21587;-48
2022/09/03 07:16:20;;;;;;;10.43;4.83;;;;;;;17.38;46.93;101291.44;1817007;77;21049;-49
2022/09/03 07:18:48;;;;;;;8.85;4.33;;;;;;;17.36;46.03;101292.09;1816402;78;21101;-49
2022/09/03 07:21:20;;;;;;;7.90;4.37;;;;;;;17.34;45.90;101291.40;1811944;77;21057;-48
2022/09/03 07:23:47;;;;;;;9.50;4.85;;;;;;;17.33;45.76;101293.70;1791676;78;21731;-48
2022/09/03 07:26:15;;;;;;;9.78;4.72;;;;;;;17.32;46.09;101293.38;1817888;78;21493;-48
2022/09/03 07:28:42;;;;;;;9.10;4.80;;;;;;;17.35;46.06;101295.72;1813070;77;21081;-48
2022/09/03 07:31:15;;;;;;;9.30;4.20;;;;;;;17.39;46.32;101295.29;1809516;78;21329;-47
2022/09/03 07:33:41;;;;;;;7.92;4.28;;;;;;;17.48;46.70;101290.91;1781729;78;21057;-48
2022/09/03 07:36:13;;;;;;;7.55;4.28;;;;;;;17.55;46.88;101288.03;1776843;78;21069;-48
2022/09/03 07:38:40;;;;;;;9.93;5.15;;;;;;;17.62;47.27;101296.27;1783166;78;20947;-47
2022/09/03 07:41:08;;;;;;;10.93;4.92;;;;;;;17.66;46.73;101296.81;1805939;78;21087;-48
2022/09/03 07:43:47;;;;;;;9.73;5.05;;;;;;;17.67;46.21;101292.67;1802968;77;21233;-48
2022/09/03 07:46:23;;;;;;;8.18;4.42;;;;;;;17.72;46.46;101292.21;1809396;78;21532;-46
2022/09/03 07:48:51;;;;;;;;;;;;;;;17.78;46.49;101294.30;1786096;78;21650;-46
2022/09/03 07:51:19;;;;;;;7.60;4.35;;;;;;;17.84;46.86;101293.71;1777590;78;20232;-48
2022/09/03 07:53:47;;;;;;;8.03;4.70;;;;;;;17.88;47.15;101292.95;1780365;79;21074;-48
2022/09/03 07:56:14;;;;;;;10.20;5.05;;;;;;;17.92;47.11;101295.17;1784921;78;21964;-48
2022/09/03 07:58:41;;;;;;;9.13;4.50;;;;;;;17.97;46.31;101294.23;1784139;78;21112;-48
2022/09/03 08:01:10;;;;;;;8.20;4.83;;;;;;;18.00;46.49;101289.09;1800227;78;21093;-47
2022/09/03 08:03:44;;;;;;;10.40;5.37;;;;;;;18.07;46.50;101287.99;1807464;78;21061;-46
2022/09/03 08:06:11;;;;;;;7.40;4.60;;;;;;;18.13;46.57;101282.91;1811627;77;21053;-47
2022/09/03 08:08:39;;;;;;;8.50;4.53;;;;;;;18.15;46.09;101280.09;1805396;77;21233;-47
2022/09/03 08:11:14;;;;;;;8.10;4.75;;;;;;;18.18;46.16;101284.63;1805792;78;22158;-47
2022/09/03 08:13:47;;;;;;;7.80;4.58;;;;;;;18.19;46.38;101290.81;1820276;77;21493;-48
2022/09/03 08:16:21;;;;;;;7.92;3.62;;;;;;;18.23;46.71;101297.50;1816817;78;21540;-46
2022/09/03 08:18:46;;;;;;;8.88;4.78;;;;;;;18.27;46.47;101294.86;1784451;79;21525;-47
2022/09/03 08:21:15;;;;;;;8.78;4.58;;;;;;;18.32;45.45;101299.24;1792062;78;22019;-47
2022/09/03 08:23:46;;;;;;;7.95;4.65;;;;;;;18.37;45.27;101298.32;1819703;77;21061;-46
2022/09/03 08:26:14;;;;;;;7.17;4.30;;;;;;;18.42;44.50;101298.34;1810110;78;21084;-46
2022/09/03 08:28:42;;;;;;;8.13;4.35;;;;;;;18.42;44.27;101291.69;1773786;79;21112;-46
2022/09/03 08:31:11;;;;;;;8.08;4.37;;;;;;;18.40;44.26;101297.16;1818838;78;21081;-47
2022/09/03 08:33:42;;;;;;;9.78;4.75;;;;;;;18.41;44.60;101286.86;1806071;78;21181;-49
2022/09/03 08:36:21;;;;;;;7.47;4.40;;;;;;;18.44;45.16;101281.70;1814052;78;21081;-47
2022/09/03 08:38:53;;;;;;;11.10;5.22;;;;;;;18.47;44.83;101283.56;1778302;78;21090;-46
2022/09/03 08:41:21;;;;;;;9.75;4.47;;;;;;;18.49;44.13;101280.75;1802331;78;21093;-50
2022/09/03 08:44:18;;;;;;;9.85;4.40;;;;;;;18.47;43.04;101280.08;1808681;77;20995;-53
2022/09/03 08:47:09;;;;;;;8.73;4.75;;;;;;;18.44;42.95;101281.23;1770899;79;21089;-47
2022/09/03 08:49:58;;;;;;;9.80;4.75;;;;;;;18.45;42.93;101274.89;1780749;79;21042;-48
2022/09/03 08:52:37;;;;;;;8.80;4.05;;;;;;;18.49;43.11;101271.42;1777389;79;21093;-49
2022/09/03 08:55:25;;;;;;;7.53;4.22;;;;;;;18.53;43.24;101256.31;1790542;78;21049;-47
2022/09/03 08:57:59;;;;;;;6.80;3.47;;;;;;;18.60;44.00;101249.05;1802957;78;21041;-48
2022/09/03 09:00:31;;;;;;;8.43;3.23;;;;;;;18.60;42.59;101251.20;1782188;78;21142;-46
2022/09/03 09:03:21;;;;;;;7.83;3.45;;;;;;;18.62;43.32;101252.39;1790443;79;21722;-46
2022/09/03 09:05:55;;;;;;;7.85;4.15;;;;;;;18.74;43.86;101255.14;1777656;79;21098;-46
2022/09/03 09:09:00;;;;;;;6.97;3.50;;;;;;;18.86;43.12;101254.42;1785307;79;21550;-46
2022/09/03 09:11:41;;;;;;;7.83;3.55;;;;;;;18.86;42.13;101257.95;1803986;77;21038;-46
2022/09/03 09:14:25;;;;;;;8.65;3.95;;;;;;;18.87;42.98;101260.94;1779111;80;21209;-47
2022/09/03 09:17:32;;;;;;;6.35;3.90;;;;;;;19.01;43.17;101252.02;1811163;78;20999;-46
2022/09/03 09:20:25;;;;;;;6.90;3.95;;;;;;;19.18;42.55;101254.30;1773479;78;21598;-46
2022/09/03 09:23:05;;;;;;;7.40;3.20;;;;;;;19.31;42.23;101259.53;1798433;78;20983;-46
2022/09/03 09:25:38;;;;;;;7.45;3.98;;;;;;;19.47;41.63;101247.28;1787388;79;21050;-46
2022/09/03 09:28:06;;;;;;;6.15;3.17;;;;;;;19.62;40.79;101251.52;1795747;78;21095;-46
2022/09/03 09:30:33;;;;;;;6.42;3.22;;;;;;;19.64;39.69;101248.19;1792091;79;21572;-47
2022/09/03 09:33:00;;;;;;;8.48;3.05;;;;;;;19.67;40.05;101247.36;1807791;78;20978;-46
2022/09/03 09:35:26;;;;;;;9.88;4.03;;;;;;;19.82;39.77;101250.76;1803046;77;21662;-46
2022/09/03 09:37:57;;;;;;;8.00;3.05;;;;;;;19.91;39.03;101247.64;1778573;78;21077;-46
2022/09/03 09:40:31;;;;;;;5.85;2.77;;;;;;;19.93;37.89;101257.66;1811887;78;21706;-46
2022/09/03 09:43:19;;;;;;;7.03;2.83;;;;;;;19.91;37.83;101259.66;1762663;78;21098;-47
2022/09/03 09:45:49;;;;;;;5.53;2.45;;;;;;;19.94;38.47;101255.30;1827274;77;21046;-46
2022/09/03 09:48:32;;;;;;;7.72;3.08;;;;;;;19.98;38.43;101249.48;1817262;77;21077;-47
2022/09/03 09:51:12;;;;;;;6.70;2.92;;;;;;;20.04;38.62;101254.69;1780455;78;21478;-48
2022/09/03 09:53:40;;;;;;;6.65;3.12;;;;;;;20.08;38.60;101249.34;1807606;77;21159;-48
2022/09/03 09:56:07;;;;;;;5.25;2.70;;;;;;;20.10;38.45;101250.00;1774598;79;21011;-47
2022/09/03 09:58:34;;;;;;;6.55;3.17;;;;;;;20.09;37.96;101248.34;1805449;77;21097;-48
2022/09/03 10:01:14;;;;;;;9.08;2.85;;;;;;;20.11;38.70;101253.02;1796592;78;21109;-47
2022/09/03 10:03:48;;;;;;;6.65;2.98;;;;;;;20.18;39.32;101255.88;1793658;78;21108;-48
2022/09/03 10:09:12;;;;;;;5.93;3.00;;;;;;;20.30;38.48;101256.39;1792353;78;21022;-47
2022/09/03 10:11:44;;;;;;;5.28;2.77;;;;;;;20.33;37.88;101257.39;1791373;78;21065;-47
2022/09/03 10:14:20;;;;;;;6.90;3.37;;;;;;;20.36;38.57;101252.55;1788771;79;21097;-47
2022/09/03 10:16:57;;;;;;;9.55;3.27;;;;;;;20.42;38.16;101260.39;1797601;78;21092;-47
2022/09/03 10:19:29;;;;;;;6.50;2.83;;;;;;;20.47;39.24;101259.91;1783661;79;21132;-47
2022/09/03 10:22:09;;;;;;;5.15;2.30;;;;;;;20.52;38.18;101247.70;1786346;78;21032;-47
2022/09/03 10:24:50;;;;;;;7.53;3.00;;;;;;;20.59;38.76;101247.38;1765589;78;21049;-48
2022/09/03 10:27:17;;;;;;;6.20;2.37;;;;;;;20.60;38.40;101238.34;1765505;78;21046;-47
2022/09/03 10:29:44;;;;;;;5.60;2.60;;;;;;;20.60;38.45;101243.69;1808101;77;21073;-48
2022/09/03 10:32:32;;;;;;;7.10;2.55;;;;;;;20.58;38.36;101244.88;1805923;78;21187;-48
2022/09/03 10:35:27;;;;;;;6.08;2.85;;;;;;;20.57;38.84;101253.38;1783464;78;21031;-47
2022/09/03 10:37:58;;;;;;;5.40;2.50;;;;;;;20.60;39.17;101245.02;1791987;78;20999;-49
2022/09/03 10:40:39;;;;;;;4.53;2.10;;;;;;;20.68;39.33;101243.37;1799901;78;20983;-47
2022/09/03 10:43:32;;;;;;;5.05;2.45;;;;;;;20.73;38.08;101245.07;1785941;78;21007;-48
2022/09/03 10:46:13;;;;;;;8.05;3.12;;;;;;;20.70;37.75;101248.90;1830162;77;21125;-48
2022/09/03 10:49:22;;;;;;;8.38;3.02;;;;;;;20.69;37.64;101246.39;1816882;77;21473;-47
2022/09/03 10:52:00;;;;;;;6.03;2.85;;;;;;;20.65;37.68;101245.89;1821227;77;21093;-47
2022/09/03 10:54:44;;;;;;;6.22;2.77;;;;;;;20.62;38.78;101242.19;1799578;78;21509;-48
2022/09/03 10:57:36;;;;;;;8.15;2.33;;;;;;;20.63;38.31;101237.22;1794735;78;21120;-47
2022/09/03 11:00:09;;;;;;;5.25;2.55;;;;;;;20.62;37.62;101236.84;1784432;78;21135;-47
2022/09/03 11:02:46;;;;;;;5.20;2.52;;;;;;;20.60;37.98;101233.50;1795010;78;21512;-47
2022/09/03 11:05:28;;;;;;;4.55;2.50;;;;;;;20.64;38.22;101236.19;1785687;78;21076;-47
2022/09/03 11:08:11;;;;;;;5.83;2.70;;;;;;;20.68;38.65;101234.88;1790075;79;20994;-47
2022/09/03 11:10:45;;;;;;;5.47;2.80;;;;;;;20.71;38.50;101233.68;1796072;78;21505;-48
2022/09/03 11:13:22;;;;;;;5.08;2.72;;;;;;;20.81;38.89;101231.66;1794089;79;21740;-48
2022/09/03 11:15:55;;;;;;;6.05;2.90;;;;;;;20.86;38.58;101227.97;1789863;78;21471;-47
2022/09/03 11:18:33;;;;;;;7.30;3.15;;;;;;;20.87;38.64;101225.64;1782976;78;21524;-47
2022/09/03 11:21:03;;;;;;;8.25;3.30;;;;;;;20.90;39.01;101223.14;1767834;78;21450;-47
2022/09/03 11:23:36;;;;;;;8.90;3.90;;;;;;;20.97;39.37;101218.27;1801483;77;21300;-47
2022/09/03 11:26:07;;;;;;;5.92;3.05;;;;;;;20.99;38.32;101218.09;1800809;78;21680;-47
2022/09/03 11:28:55;;;;;;;5.90;2.60;;;;;;;20.97;38.62;101214.25;1799831;77;21082;-47
2022/09/03 11:32:01;;;;;;;5.10;2.37;;;;;;;20.95;37.93;101215.44;1806672;78;22475;-48
2022/09/03 11:34:34;;;;;;;5.20;2.70;;;;;;;20.89;38.04;101212.92;1811503;77;21058;-47
2022/09/03 11:37:18;;;;;;;7.47;3.00;;;;;;;20.89;38.04;101212.92;1809679;77;21403;-47
2022/09/03 11:40:07;;;;;;;5.08;2.52;;;;;;;20.92;38.03;101209.91;1780170;80;21696;-48
2022/09/03 11:42:41;;;;;;;6.25;2.92;;;;;;;21.00;38.00;101209.55;1794093;79;21038;-48
2022/09/03 11:45:31;;;;;;;4.83;2.70;;;;;;;21.06;37.97;101206.20;1789656;79;21130;-47
2022/09/03 11:47:58;;;;;;;5.05;2.70;;;;;;;21.14;38.07;101204.84;1767321;80;21062;-47
2022/09/03 11:50:29;;;;;;;6.25;3.00;;;;;;;21.20;37.87;101202.83;1808537;78;21058;-47
2022/09/03 11:53:16;;;;;;;7.40;3.25;;;;;;;21.27;37.37;101195.77;1809154;78;21119;-47
2022/09/03 11:55:53;;;;;;;8.98;2.55;;;;;;;21.34;37.02;101195.39;1814422;77;21575;-47
2022/09/03 11:58:37;;;;;;;5.00;2.67;;;;;;;21.45;37.52;101192.00;1816190;77;21002;-47
2022/09/03 12:01:13;;;;;;;5.87;3.22;;;;;;;21.53;35.85;101183.95;1814018;78;21528;-47
2022/09/03 12:03:53;;;;;;;6.95;3.35;;;;;;;21.58;36.50;101190.13;1788855;78;21038;-47